createdAt,value
2022-08-17T00:00:53.269Z,7.95
2022-08-17T00:03:23.723Z,7.20
2022-08-17T00:05:53.823Z,8.85
2022-08-17T00:08:23.584Z,8.10
2022-08-17T00:10:51.919Z,7.78
2022-08-17T00:13:21.924Z,8.20
2022-08-17T00:15:48.987Z,8.27
2022-08-17T00:19:01.560Z,8.25
2022-08-17T00:21:10.355Z,7.45
2022-08-17T00:23:47.757Z,7.97
2022-08-17T00:26:16.512Z,7.88
2022-08-17T00:29:03.873Z,7.40
2022-08-17T00:31:30.504Z,8.35
2022-08-17T00:33:57.241Z,8.30
2022-08-17T00:36:23.892Z,9.15
2022-08-17T00:38:51.952Z,8.55
2022-08-17T00:41:22.746Z,8.30
2022-08-17T00:43:51.203Z,8.50
2022-08-17T00:46:21.546Z,7.80
2022-08-17T00:48:49.107Z,8.20
2022-08-17T00:51:19.833Z,7.28
2022-08-17T00:53:51.069Z,8.25
2022-08-17T00:56:27.176Z,7.68
2022-08-17T00:58:55.071Z,8.27
2022-08-17T01:01:22.296Z,7.65
2022-08-17T01:03:50.291Z,7.85
2022-08-17T01:06:17.554Z,8.15
2022-08-17T01:08:44.693Z,7.38
2022-08-17T01:11:11.287Z,8.52
2022-08-17T01:13:42.072Z,7.50
2022-08-17T01:16:15.809Z,8.15
2022-08-17T01:18:43.146Z,7.63
2022-08-17T01:21:15.114Z,8.25
2022-08-17T01:23:43.069Z,8.32
2022-08-17T01:26:09.723Z,8.13
2022-08-17T01:28:54.154Z,8.95
2022-08-17T01:31:24.158Z,8.35
2022-08-17T01:33:50.879Z,8.52
2022-08-17T01:36:17.466Z,8.95
2022-08-17T01:38:45.479Z,8.63
2022-08-17T01:41:15.234Z,8.35
2022-08-17T01:43:44.921Z,8.63
2022-08-17T01:46:15.581Z,8.43
2022-08-17T01:48:42.250Z,8.43
2022-08-17T01:51:08.954Z,8.88
2022-08-17T01:53:40.558Z,8.23
2022-08-17T01:56:11.143Z,9.00
2022-08-17T01:58:38.991Z,7.95
2022-08-17T02:01:07.192Z,8.00
2022-08-17T02:03:35.992Z,8.10
2022-08-17T02:06:05.175Z,8.00
2022-08-17T02:08:38.842Z,9.48
2022-08-17T02:11:15.611Z,8.82
2022-08-17T02:13:42.679Z,7.72
2022-08-17T02:16:09.372Z,7.53
2022-08-17T02:18:36.202Z,8.23
2022-08-17T02:21:03.769Z,7.45
2022-08-17T02:23:34.483Z,8.45
2022-08-17T02:26:01.981Z,8.70
2022-08-17T02:28:30.160Z,8.52
2022-08-17T02:31:01.793Z,8.02
2022-08-17T02:33:41.719Z,8.27
2022-08-17T02:36:11.189Z,8.80
2022-08-17T02:38:38.581Z,8.43
2022-08-17T02:41:05.515Z,8.35
2022-08-17T02:43:33.499Z,8.93
2022-08-17T02:46:00.167Z,8.25
2022-08-17T02:48:30.721Z,9.18
2022-08-17T02:50:58.003Z,8.07
2022-08-17T02:53:24.639Z,8.38
2022-08-17T02:55:52.611Z,8.23
2022-08-17T02:58:35.058Z,8.20
2022-08-17T03:01:05.564Z,8.05
2022-08-17T03:03:32.357Z,8.35
2022-08-17T03:05:59.037Z,7.53
2022-08-17T03:08:25.734Z,9.05
2022-08-17T03:10:52.884Z,8.43
2022-08-17T03:13:19.557Z,8.48
2022-08-17T03:15:47.843Z,9.00
2022-08-17T03:18:24.965Z,7.78
2022-08-17T03:20:53.477Z,8.25
2022-08-17T03:23:23.847Z,8.40
2022-08-17T03:25:52.780Z,8.07
2022-08-17T03:28:20.880Z,8.45
2022-08-17T03:30:47.469Z,8.15
2022-08-17T03:33:16.011Z,8.32
2022-08-17T03:35:42.677Z,8.18
2022-08-17T03:38:11.584Z,8.05
2022-08-17T03:40:57.509Z,8.55
2022-08-17T03:43:25.917Z,9.50
2022-08-17T03:45:52.487Z,7.97
2022-08-17T03:48:21.671Z,8.27
2022-08-17T03:50:48.247Z,8.18
2022-08-17T03:53:17.051Z,8.38
2022-08-17T03:55:43.607Z,7.63
2022-08-17T03:58:10.227Z,7.95
2022-08-17T04:00:39.723Z,8.60
2022-08-17T04:03:06.461Z,8.32
2022-08-17T04:05:36.847Z,8.43
2022-08-17T04:08:05.219Z,9.23
2022-08-17T04:10:32.900Z,8.05
2022-08-17T04:13:00.576Z,8.75
2022-08-17T04:15:27.858Z,7.90
2022-08-17T04:17:54.978Z,8.48
2022-08-17T04:20:23.986Z,8.77
2022-08-17T04:23:02.927Z,8.55
2022-08-17T04:25:33.130Z,8.43
2022-08-17T04:28:01.025Z,8.15
2022-08-17T04:30:28.813Z,8.57
2022-08-17T04:33:03.494Z,8.25
2022-08-17T04:35:34.182Z,7.60
2022-08-17T04:38:02.074Z,7.53
2022-08-17T04:40:28.752Z,7.53
2022-08-17T04:43:01.449Z,7.35
2022-08-17T04:45:32.033Z,7.40
2022-08-17T04:47:59.587Z,8.05
2022-08-17T04:50:26.462Z,8.15
2022-08-17T04:52:53.022Z,8.63
2022-08-17T04:55:21.132Z,8.15
2022-08-17T04:57:47.807Z,8.07
2022-08-17T05:00:14.862Z,8.13
2022-08-17T05:02:49.653Z,8.27
2022-08-17T05:05:18.662Z,7.85
2022-08-17T05:07:45.215Z,7.70
2022-08-17T05:10:12.300Z,8.45
2022-08-17T05:12:40.201Z,8.88
2022-08-17T05:15:11.643Z,7.88
2022-08-17T05:17:38.175Z,8.05
2022-08-17T05:20:05.700Z,9.40
2022-08-17T05:22:32.227Z,8.65
2022-08-17T05:24:58.776Z,8.45
2022-08-17T05:27:30.803Z,8.32
2022-08-17T05:30:04.299Z,8.63
2022-08-17T05:32:38.905Z,7.82
2022-08-17T05:35:07.644Z,8.40
2022-08-17T05:37:34.248Z,8.70
2022-08-17T05:40:01.051Z,8.45
2022-08-17T05:42:27.699Z,8.63
2022-08-17T05:44:57.951Z,8.90
2022-08-17T05:47:27.051Z,9.32
2022-08-17T05:49:54.426Z,9.32
2022-08-17T05:52:27.970Z,9.18
2022-08-17T05:55:06.789Z,8.45
2022-08-17T05:57:52.865Z,8.80
2022-08-17T06:00:26.354Z,9.50
2022-08-17T06:03:25.128Z,9.38
2022-08-17T06:08:33.891Z,9.73
2022-08-17T06:11:09.211Z,11.50
2022-08-17T06:13:49.660Z,10.55
2022-08-17T06:16:33.359Z,11.40
2022-08-17T06:19:09.967Z,10.88
2022-08-17T06:21:42.435Z,10.63
2022-08-17T06:24:31.322Z,10.93
2022-08-17T06:27:06.132Z,12.30
2022-08-17T06:29:39.580Z,11.90
2022-08-17T06:32:09.226Z,11.32
2022-08-17T06:34:43.157Z,11.03
2022-08-17T06:37:21.691Z,11.60
2022-08-17T06:40:07.777Z,9.93
2022-08-17T06:43:02.752Z,10.05
2022-08-17T06:45:34.467Z,9.15
2022-08-17T06:48:07.070Z,9.30
2022-08-17T06:50:38.763Z,9.77
2022-08-17T06:53:13.793Z,8.77
2022-08-17T06:55:46.836Z,10.15
2022-08-17T06:58:16.995Z,10.05
2022-08-17T07:00:47.891Z,10.15
2022-08-17T07:03:26.186Z,9.43
2022-08-17T07:05:58.949Z,9.95
2022-08-17T07:08:33.996Z,10.07
2022-08-17T07:11:08.631Z,9.10
2022-08-17T07:13:44.338Z,9.23
2022-08-17T07:16:24.114Z,8.93
2022-08-17T07:18:52.471Z,8.10
2022-08-17T07:21:35.535Z,8.20
2022-08-17T07:24:26.338Z,8.27
2022-08-17T07:27:11.773Z,8.10
2022-08-17T07:29:41.792Z,7.88
2022-08-17T07:32:11.030Z,8.05
2022-08-17T07:35:04.321Z,7.70
2022-08-17T07:37:33.393Z,8.50
2022-08-17T07:40:15.797Z,8.05
2022-08-17T07:42:45.811Z,7.80
2022-08-17T07:45:15.003Z,7.15
2022-08-17T07:47:50.740Z,7.85
2022-08-17T07:50:26.375Z,7.20
2022-08-17T07:52:54.381Z,7.43
2022-08-17T07:55:29.978Z,7.10
2022-08-17T07:57:58.078Z,7.90
2022-08-17T08:00:32.234Z,7.60
2022-08-17T08:03:12.591Z,7.85
2022-08-17T08:05:50.954Z,7.50
2022-08-17T08:08:37.298Z,6.95
2022-08-17T08:11:07.738Z,7.30
2022-08-17T08:13:35.981Z,7.40
2022-08-17T08:16:29.675Z,7.18
2022-08-17T08:18:58.503Z,6.95
2022-08-17T08:21:34.698Z,6.78
2022-08-17T08:24:19.714Z,6.80
2022-08-17T08:26:55.433Z,6.50
2022-08-17T08:29:31.508Z,6.72
2022-08-17T08:32:07.411Z,6.05
2022-08-17T08:34:46.351Z,6.55
2022-08-17T08:37:42.701Z,6.68
2022-08-17T08:40:32.708Z,6.22
2022-08-17T08:43:11.723Z,5.63
2022-08-17T08:45:48.429Z,7.13
2022-08-17T08:48:52.851Z,6.50
2022-08-17T08:51:35.405Z,5.57
2022-08-17T08:54:13.935Z,5.68
2022-08-17T08:57:21.495Z,5.25
2022-08-17T08:59:51.234Z,5.30
2022-08-17T09:02:43.308Z,5.40
2022-08-17T09:05:25.824Z,5.53
2022-08-17T09:08:02.586Z,5.30
2022-08-17T09:10:35.077Z,5.10
2022-08-17T09:13:10.803Z,5.30
2022-08-17T09:15:42.430Z,5.07
2022-08-17T09:19:03.191Z,5.90
2022-08-17T09:23:37.203Z,4.78
2022-08-17T09:26:14.199Z,4.90
2022-08-17T09:28:47.980Z,5.22
2022-08-17T09:31:19.064Z,5.13
2022-08-17T09:33:47.564Z,4.93
2022-08-17T09:36:20.337Z,4.57
2022-08-17T09:38:57.171Z,4.35
2022-08-17T09:41:31.587Z,5.05
2022-08-17T09:44:06.961Z,4.45
2022-08-17T09:46:40.786Z,4.40
2022-08-17T09:49:13.068Z,4.47
2022-08-17T09:51:44.934Z,4.20
2022-08-17T09:54:38.173Z,5.35
2022-08-17T09:57:32.753Z,4.97
2022-08-17T10:00:17.194Z,4.22
2022-08-17T10:03:12.409Z,4.60
2022-08-17T10:05:44.300Z,4.40
2022-08-17T10:08:22.147Z,4.35
2022-08-17T10:11:02.452Z,4.85
2022-08-17T10:13:35.932Z,4.40
2022-08-17T10:16:12.205Z,4.45
2022-08-17T10:18:46.809Z,4.38
2022-08-17T10:21:15.837Z,4.35
2022-08-17T10:23:46.014Z,4.57
2022-08-17T10:26:18.456Z,4.97
2022-08-17T10:28:51.592Z,4.60
2022-08-17T10:34:41.095Z,4.38
2022-08-17T10:37:29.253Z,4.80
2022-08-17T10:40:20.783Z,4.70
2022-08-17T10:42:51.375Z,4.60
2022-08-17T10:45:25.637Z,4.53
2022-08-17T10:48:01.317Z,4.03
2022-08-17T10:50:57.735Z,4.40
2022-08-17T10:53:58.164Z,4.30
2022-08-17T10:56:39.870Z,4.13
2022-08-17T10:59:06.586Z,4.43
2022-08-17T11:02:00.142Z,4.93
2022-08-17T11:07:12.016Z,4.15
2022-08-17T11:09:55.531Z,4.40
2022-08-17T11:12:36.402Z,4.22
2022-08-17T11:15:26.368Z,4.70
2022-08-17T11:18:25.668Z,4.00
2022-08-17T11:21:29.065Z,4.20
2022-08-17T11:24:15.818Z,4.43
2022-08-17T11:26:45.661Z,4.10
2022-08-17T11:29:20.704Z,4.50
2022-08-17T11:32:01.865Z,4.70
2022-08-17T11:34:31.018Z,4.18
2022-08-17T11:37:36.333Z,4.22
2022-08-17T11:40:41.537Z,4.30
2022-08-17T11:43:25.337Z,3.92
2022-08-17T11:46:10.564Z,4.10
2022-08-17T11:48:47.588Z,3.97
2022-08-17T11:51:16.470Z,3.50
2022-08-17T11:56:58.007Z,3.30
2022-08-17T11:59:53.841Z,4.10
2022-08-17T12:02:43.338Z,4.00
2022-08-17T12:05:28.232Z,3.53
2022-08-17T12:08:06.387Z,4.00
2022-08-17T12:10:38.802Z,3.70
2022-08-17T12:13:11.186Z,3.97
2022-08-17T12:15:42.980Z,4.32
2022-08-17T12:18:19.103Z,4.03
2022-08-17T12:20:53.260Z,3.88
2022-08-17T12:23:31.711Z,3.88
2022-08-17T12:26:06.085Z,3.47
2022-08-17T12:28:35.797Z,4.05
2022-08-17T12:31:04.435Z,3.47
2022-08-17T12:33:31.439Z,3.15
2022-08-17T12:36:01.557Z,4.07
2022-08-17T12:38:33.160Z,3.83
2022-08-17T12:41:03.406Z,3.65
2022-08-17T12:43:30.018Z,3.72
2022-08-17T12:45:58.611Z,3.72
2022-08-17T12:48:26.459Z,4.00
2022-08-17T12:51:00.004Z,3.40
2022-08-17T12:53:28.818Z,4.15
2022-08-17T12:55:57.671Z,3.47
2022-08-17T12:58:30.841Z,3.45
2022-08-17T13:01:03.120Z,4.28
2022-08-17T13:03:37.668Z,3.63
2022-08-17T13:06:06.683Z,4.28
2022-08-17T13:08:35.487Z,4.03
2022-08-17T13:11:05.679Z,4.28
2022-08-17T13:13:36.926Z,3.67
2022-08-17T13:16:06.603Z,3.97
2022-08-17T13:18:40.708Z,3.95
2022-08-17T13:21:16.459Z,4.20
2022-08-17T13:23:54.765Z,3.70
2022-08-17T13:26:27.744Z,3.58
2022-08-17T13:31:31.160Z,3.88
2022-08-17T13:34:13.433Z,3.50
2022-08-17T13:36:42.147Z,3.42
2022-08-17T13:39:16.626Z,3.55
2022-08-17T13:41:43.367Z,3.40
2022-08-17T13:44:34.975Z,3.38
2022-08-17T13:47:02.809Z,3.53
2022-08-17T13:49:41.963Z,3.55
2022-08-17T13:52:35.028Z,3.58
2022-08-17T13:55:14.694Z,3.70
2022-08-17T13:57:45.347Z,3.60
2022-08-17T14:00:19.372Z,3.75
2022-08-17T14:02:45.932Z,3.03
2022-08-17T14:05:12.495Z,3.08
2022-08-17T14:07:39.700Z,3.42
2022-08-17T14:10:11.355Z,3.13
2022-08-17T14:12:40.461Z,3.38
2022-08-17T14:15:08.544Z,3.10
2022-08-17T14:17:38.813Z,3.20
2022-08-17T14:20:09.845Z,3.03
2022-08-17T14:22:39.528Z,3.20
2022-08-17T14:25:10.441Z,3.65
2022-08-17T14:27:43.516Z,3.22
2022-08-17T14:30:20.972Z,2.78
2022-08-17T14:32:49.086Z,2.78
2022-08-17T14:35:15.956Z,3.67
2022-08-17T14:37:43.207Z,3.08
2022-08-17T14:40:12.196Z,3.08
2022-08-17T14:42:41.436Z,3.30
2022-08-17T14:45:29.644Z,3.15
2022-08-17T14:47:58.327Z,2.97
2022-08-17T14:50:24.894Z,3.33
2022-08-17T14:52:51.499Z,3.25
2022-08-17T14:55:18.196Z,3.15
2022-08-17T14:57:45.312Z,3.05
2022-08-17T15:00:13.694Z,3.67
2022-08-17T15:02:46.694Z,3.03
2022-08-17T15:07:42.117Z,2.92
2022-08-17T15:10:09.180Z,3.30
2022-08-17T15:12:36.013Z,3.30
2022-08-17T15:15:05.296Z,3.20
2022-08-17T15:17:45.043Z,3.30
2022-08-17T15:20:23.266Z,3.40
2022-08-17T15:22:50.580Z,3.60
2022-08-17T15:25:18.506Z,3.40
2022-08-17T15:27:45.155Z,3.10
2022-08-17T15:30:12.687Z,3.45
2022-08-17T15:32:41.334Z,3.65
2022-08-17T15:35:22.175Z,3.28
2022-08-17T15:37:54.543Z,3.20
2022-08-17T15:40:21.132Z,3.10
2022-08-17T15:42:47.836Z,3.10
2022-08-17T15:45:14.685Z,3.20
2022-08-17T15:47:41.354Z,4.20
2022-08-17T15:50:09.626Z,3.10
2022-08-17T15:52:37.674Z,3.58
2022-08-17T15:55:06.364Z,3.40
2022-08-17T15:57:33.026Z,4.20
2022-08-17T15:59:59.768Z,4.38
2022-08-17T16:03:46.197Z,4.40
2022-08-17T16:05:19.801Z,3.70
2022-08-17T16:07:48.034Z,3.55
2022-08-17T16:10:18.834Z,3.60
2022-08-17T16:12:48.443Z,3.45
2022-08-17T16:15:15.947Z,4.00
2022-08-17T16:17:42.839Z,3.78
2022-08-17T16:20:20.148Z,3.65
2022-08-17T16:22:50.489Z,3.42
2022-08-17T16:25:19.639Z,4.60
2022-08-17T16:27:48.551Z,3.28
2022-08-17T16:30:17.593Z,4.15
2022-08-17T16:32:46.392Z,3.80
2022-08-17T16:35:14.949Z,3.97
2022-08-17T16:37:41.789Z,4.13
2022-08-17T16:40:15.033Z,3.72
2022-08-17T16:42:42.175Z,3.83
2022-08-17T16:45:12.573Z,3.92
2022-08-17T16:47:40.085Z,3.65
2022-08-17T16:50:08.041Z,3.60
2022-08-17T16:52:35.173Z,3.90
2022-08-17T16:55:03.470Z,4.03
2022-08-17T16:57:31.659Z,3.72
2022-08-17T16:59:58.513Z,4.18
2022-08-17T17:02:28.454Z,3.97
2022-08-17T17:05:02.158Z,3.80
2022-08-17T17:07:49.168Z,3.88
2022-08-17T17:10:20.468Z,5.05
2022-08-17T17:13:03.310Z,4.80
2022-08-17T17:15:44.992Z,4.78
2022-08-17T17:18:13.520Z,4.32
2022-08-17T17:20:49.350Z,4.53
2022-08-17T17:23:33.872Z,5.30
2022-08-17T17:26:11.593Z,5.15
2022-08-17T17:28:52.849Z,5.25
2022-08-17T17:31:21.610Z,4.85
2022-08-17T17:33:51.685Z,4.75
2022-08-17T17:36:26.180Z,5.05
2022-08-17T17:38:57.708Z,4.80
2022-08-17T17:41:29.455Z,5.25
2022-08-17T17:44:02.834Z,4.15
2022-08-17T17:46:34.322Z,4.72
2022-08-17T17:49:01.185Z,5.22
2022-08-17T17:52:08.653Z,5.53
2022-08-17T17:54:33.687Z,4.53
2022-08-17T17:57:06.852Z,5.43
2022-08-17T18:02:25.581Z,5.93
2022-08-17T18:05:02.926Z,5.20
2022-08-17T18:07:37.615Z,5.20
2022-08-17T18:10:19.536Z,4.97
2022-08-17T18:13:02.934Z,5.57
2022-08-17T18:15:36.718Z,5.43
2022-08-17T18:18:30.310Z,5.05
2022-08-17T18:23:28.614Z,5.20
2022-08-17T18:25:57.634Z,5.68
2022-08-17T18:28:27.990Z,5.38
2022-08-17T18:31:18.305Z,6.05
2022-08-17T18:33:48.440Z,6.50
2022-08-17T18:36:27.033Z,7.28
2022-08-17T18:39:10.391Z,7.50
2022-08-17T18:41:41.410Z,7.13
2022-08-17T18:44:25.598Z,6.47
2022-08-17T18:47:07.768Z,7.25
2022-08-17T18:49:34.942Z,6.32
2022-08-17T18:52:14.215Z,6.80
2022-08-17T18:54:59.275Z,6.75
2022-08-17T18:57:31.502Z,6.47
2022-08-17T18:59:58.937Z,6.72
2022-08-17T19:05:37.508Z,7.13
2022-08-17T19:08:22.031Z,6.78
2022-08-17T19:10:51.312Z,6.85
2022-08-17T19:13:24.479Z,6.75
2022-08-17T19:16:11.908Z,6.15
2022-08-17T19:18:48.449Z,6.50
2022-08-17T19:21:18.639Z,6.25
2022-08-17T19:23:53.334Z,6.50
2022-08-17T19:27:46.265Z,6.50
2022-08-17T19:30:15.037Z,6.63
2022-08-17T19:32:42.151Z,6.68
2022-08-17T19:35:16.606Z,6.88
2022-08-17T19:37:57.145Z,7.00
2022-08-17T19:43:30.383Z,6.72
2022-08-17T19:46:07.387Z,6.00
2022-08-17T19:48:46.246Z,6.65
2022-08-17T19:51:17.533Z,6.75
2022-08-17T19:54:05.281Z,7.43
2022-08-17T19:56:41.272Z,6.75
2022-08-17T19:59:15.994Z,7.57
2022-08-17T20:01:47.718Z,7.18
2022-08-17T20:04:26.426Z,7.53
2022-08-17T20:07:06.324Z,7.47
2022-08-17T20:09:36.896Z,8.10
2022-08-17T20:12:08.240Z,7.63
2022-08-17T20:14:41.126Z,7.18
2022-08-17T20:17:21.277Z,7.53
2022-08-17T20:19:51.750Z,7.10
2022-08-17T20:22:26.106Z,7.65
2022-08-17T20:24:59.123Z,7.70
2022-08-17T20:27:31.530Z,7.40
2022-08-17T20:30:05.282Z,7.07
2022-08-17T20:35:09.367Z,7.10
2022-08-17T20:37:40.251Z,7.90
2022-08-17T20:40:35.991Z,7.50
2022-08-17T20:43:43.739Z,7.85
2022-08-17T20:46:24.048Z,7.18
2022-08-17T20:48:54.390Z,7.35
2022-08-17T20:51:32.430Z,7.00
2022-08-17T20:54:40.527Z,7.30
2022-08-17T20:57:14.204Z,7.72
2022-08-17T21:00:01.313Z,7.38
2022-08-17T21:02:29.545Z,7.55
2022-08-17T21:05:07.168Z,7.30
2022-08-17T21:07:56.579Z,7.88
2022-08-17T21:10:37.511Z,8.05
2022-08-17T21:13:39.956Z,7.82
2022-08-17T21:16:22.482Z,8.15
2022-08-17T21:19:00.375Z,7.28
2022-08-17T21:21:38.147Z,7.50
2022-08-17T21:24:18.295Z,8.68
2022-08-17T21:26:52.937Z,7.68
2022-08-17T21:29:31.192Z,8.50
2022-08-17T21:32:19.182Z,8.00
2022-08-17T21:35:25.846Z,8.70
2022-08-17T21:37:58.523Z,8.13
2022-08-17T21:40:27.421Z,8.68
2022-08-17T21:42:57.279Z,8.23
2022-08-17T21:45:27.261Z,8.25
2022-08-17T21:48:08.705Z,8.35
2022-08-17T21:50:37.632Z,8.45
2022-08-17T21:53:05.486Z,7.88
2022-08-17T21:55:34.862Z,8.55
2022-08-17T21:58:22.875Z,9.30
2022-08-17T22:01:13.481Z,9.20
2022-08-17T22:03:41.068Z,9.18
2022-08-17T22:06:26.254Z,9.10
2022-08-17T22:09:06.968Z,8.60
2022-08-17T22:11:48.071Z,9.20
2022-08-17T22:14:17.487Z,9.10
2022-08-17T22:16:44.230Z,9.55
2022-08-17T22:19:10.834Z,8.68
2022-08-17T22:21:39.011Z,9.32
2022-08-17T22:24:16.097Z,9.00
2022-08-17T22:27:03.560Z,9.00
2022-08-17T22:29:58.266Z,9.57
2022-08-17T22:32:37.392Z,9.45
2022-08-17T22:35:32.965Z,9.73
2022-08-17T22:38:31.364Z,8.65
2022-08-17T22:41:14.971Z,9.77
2022-08-17T22:46:11.900Z,10.43
2022-08-17T22:48:47.579Z,9.43
2022-08-17T22:51:19.152Z,10.27
2022-08-17T22:53:49.465Z,9.93
2022-08-17T22:56:24.766Z,10.38
2022-08-17T22:58:58.934Z,10.48
2022-08-17T23:03:54.529Z,9.90
2022-08-17T23:06:21.113Z,9.93
2022-08-17T23:08:49.123Z,10.00
2022-08-17T23:11:15.957Z,10.13
2022-08-17T23:13:42.657Z,10.68
2022-08-17T23:16:09.352Z,10.25
2022-08-17T23:18:35.975Z,10.05
2022-08-17T23:21:02.605Z,10.15
2022-08-17T23:23:29.825Z,10.98
2022-08-17T23:25:57.795Z,11.02
2022-08-17T23:28:24.360Z,11.35
2022-08-17T23:30:50.942Z,10.43
2022-08-17T23:33:21.045Z,11.35
2022-08-17T23:35:47.912Z,10.35
2022-08-17T23:38:14.501Z,10.30
2022-08-17T23:40:41.298Z,10.98
2022-08-17T23:43:24.801Z,10.55
2022-08-17T23:45:53.703Z,11.70
2022-08-17T23:48:28.512Z,10.75
2022-08-17T23:51:05.496Z,10.82
2022-08-17T23:53:34.575Z,11.45
2022-08-17T23:56:03.701Z,11.30
2022-08-17T23:58:38.501Z,10.02
